Time;durP1;ratioP1;P1;durP2;ratioP2;P2;SDS_P1;SDS_P2;PMS_P1;PMS_P2;Temp;Humidity;BMP_temperature;BMP_pressure;BME280_temperature;BME280_humidity;BME280_pressure;Samples;Min_cycle;Max_cycle;Signal;HPM_P1;HPM_P2
2021/10/29 00:02:25;;;;;;;26.47;12.13;;;8.20;99.90;;;8.98;100.00;98037.78;4979709;28;20559;-77
2021/10/29 00:04:54;;;;;;;26.53;13.00;;;8.20;99.90;;;8.96;100.00;98033.69;4981549;28;20579;-78
2021/10/29 00:07:23;;;;;;;25.10;12.57;;;8.20;99.90;;;8.93;100.00;98028.84;4973785;28;20463;-78
2021/10/29 00:09:52;;;;;;;22.93;12.50;;;8.10;99.90;;;8.93;100.00;98034.06;4973715;28;20595;-78
2021/10/29 00:12:22;;;;;;;37.97;12.77;;;8.20;99.90;;;8.95;100.00;98032.91;4977251;28;20476;-78
2021/10/29 00:14:55;;;;;;;33.47;12.80;;;8.20;99.90;;;8.96;100.00;98031.09;4984486;28;20483;-77
2021/10/29 00:17:23;;;;;;;27.30;12.00;;;8.30;99.90;;;8.98;100.00;98032.56;4984192;28;20587;-80
2021/10/29 00:19:52;;;;;;;44.57;13.20;;;8.20;99.90;;;9.00;100.00;98027.16;4984149;28;20521;-80
2021/10/29 00:22:20;;;;;;;32.70;12.57;;;8.20;99.90;;;8.99;100.00;98028.13;4985036;28;20467;-78
2021/10/29 00:24:48;;;;;;;41.37;11.67;;;8.40;99.90;;;8.97;100.00;98024.91;4980441;28;20504;-78
2021/10/29 00:27:17;;;;;;;53.83;12.53;;;8.30;99.90;;;8.97;100.00;98019.69;4982307;28;20468;-77
2021/10/29 00:29:45;;;;;;;30.33;12.50;;;8.30;99.90;;;8.98;100.00;98016.91;4986280;28;20546;-78
2021/10/29 00:32:15;;;;;;;42.07;12.03;;;8.20;99.90;;;8.97;100.00;98020.50;4978743;28;20499;-78
2021/10/29 00:34:43;;;;;;;38.30;12.73;;;8.20;99.90;;;8.96;100.00;98018.88;4979618;28;20468;-77
2021/10/29 00:37:12;;;;;;;26.60;12.80;;;8.20;99.90;;;8.95;100.00;98019.06;4979634;28;20967;-78
2021/10/29 00:39:40;;;;;;;57.40;12.27;;;8.10;99.90;;;8.95;100.00;98032.09;4981286;28;20542;-77
2021/10/29 00:42:09;;;;;;;81.50;11.23;;;8.20;99.90;;;8.94;100.00;98023.47;4982654;28;20492;-78
2021/10/29 00:44:37;;;;;;;40.33;12.67;;;8.30;99.90;;;8.94;100.00;98020.84;4975966;28;20526;-78
2021/10/29 00:47:06;;;;;;;21.87;11.97;;;8.20;99.90;;;8.93;100.00;98014.00;4984178;28;20496;-80
2021/10/29 00:49:36;;;;;;;37.87;12.20;;;8.20;99.90;;;8.93;100.00;98005.38;4979581;28;20832;-78
2021/10/29 00:52:05;;;;;;;28.23;12.77;;;8.10;99.90;;;8.94;100.00;98002.59;4976954;28;20515;-78
2021/10/29 00:54:33;;;;;;;32.57;12.50;;;8.10;99.90;;;8.96;100.00;98013.66;4986440;28;20999;-78
2021/10/29 00:57:03;;;;;;;46.67;11.20;;;8.10;99.90;;;8.95;100.00;98008.63;4978920;28;20518;-78
2021/10/29 00:59:31;;;;;;;43.13;12.30;;;8.10;99.90;;;8.95;100.00;98009.44;4984592;28;20456;-78
2021/10/29 01:02:00;;;;;;;37.37;12.67;;;8.10;99.90;;;8.96;100.00;98010.22;4985199;28;20468;-78
2021/10/29 01:04:29;;;;;;;26.17;12.70;;;8.10;99.90;;;8.97;100.00;98009.25;4985116;28;20504;-77
2021/10/29 01:06:59;;;;;;;48.83;12.77;;;8.20;99.90;;;8.97;100.00;98010.06;4983919;28;20875;-78
2021/10/29 01:09:27;;;;;;;39.60;11.67;;;8.20;99.90;;;8.97;100.00;98009.25;4983722;28;20486;-77
2021/10/29 01:11:56;;;;;;;27.50;12.33;;;8.10;99.90;;;8.98;100.00;98011.69;4981164;28;20476;-77
2021/10/29 01:14:25;;;;;;;33.03;11.30;;;8.20;99.90;;;8.95;100.00;98006.03;4977164;28;20459;-78
2021/10/29 01:16:53;;;;;;;32.07;11.40;;;8.30;99.90;;;8.94;100.00;98007.81;4982744;28;20733;-78
2021/10/29 01:19:31;;;;;;;69.57;11.40;;;8.20;99.90;;;8.93;100.00;98000.16;4981061;28;20456;-78
2021/10/29 01:22:02;;;;;;;39.50;11.03;;;8.20;99.90;;;8.92;100.00;98001.94;4987943;28;21046;-77
2021/10/29 01:24:31;;;;;;;30.30;12.20;;;8.10;99.90;;;8.92;100.00;98001.16;4985280;28;20562;-78
2021/10/29 01:26:59;;;;;;;24.23;11.50;;;8.10;99.90;;;8.94;100.00;98005.22;4989269;28;20755;-78
2021/10/29 01:29:28;;;;;;;29.10;11.73;;;8.10;99.90;;;8.92;100.00;97994.13;4985917;28;20819;-78
2021/10/29 01:31:56;;;;;;;26.13;10.97;;;8.10;99.90;;;8.93;100.00;97989.72;4972295;28;20476;-78
2021/10/29 01:34:25;;;;;;;54.37;11.80;;;8.10;99.90;;;8.93;100.00;97993.16;4974333;28;20835;-78
2021/10/29 01:36:53;;;;;;;46.77;12.23;;;8.10;99.90;;;8.93;100.00;97981.91;4984230;28;20464;-78
2021/10/29 01:39:23;;;;;;;38.07;13.07;;;8.10;99.90;;;8.93;100.00;97981.91;4980382;28;20518;-78
2021/10/29 01:41:52;;;;;;;38.83;11.53;;;8.10;99.90;;;8.94;100.00;97980.91;4983277;28;20491;-77
2021/10/29 01:44:20;;;;;;;60.80;13.40;;;8.10;99.90;;;8.94;100.00;97978.31;4988421;28;20518;-78
2021/10/29 01:46:49;;;;;;;35.03;12.33;;;8.20;99.90;;;8.95;100.00;97972.13;4981053;28;20913;-78
2021/10/29 01:49:18;;;;;;;24.20;10.23;;;8.20;99.90;;;8.94;100.00;97968.69;4978518;28;20468;-77
2021/10/29 01:51:46;;;;;;;35.43;12.10;;;8.20;99.90;;;8.94;100.00;97968.69;4973499;28;20495;-78
2021/10/29 01:54:15;;;;;;;24.00;9.47;;;8.30;99.90;;;8.93;100.00;97967.06;4976387;28;20472;-78
2021/10/29 01:56:45;;;;;;;27.70;9.60;;;8.30;99.90;;;8.96;100.00;97968.50;4972357;28;20460;-78
2021/10/29 01:59:13;;;;;;;41.37;11.40;;;8.30;99.90;;;8.95;100.00;97959.09;4982229;28;20554;-79
2021/10/29 02:01:41;;;;;;;18.90;9.77;;;8.30;99.90;;;8.94;100.00;97957.44;4977114;28;20465;-78
2021/10/29 02:04:10;;;;;;;34.20;10.30;;;8.20;99.90;;;8.92;100.00;97955.00;4983203;28;20496;-78
2021/10/29 02:06:38;;;;;;;31.67;11.10;;;8.30;99.90;;;8.91;100.00;97955.22;4980580;28;20459;-79
2021/10/29 02:09:07;;;;;;;36.87;9.80;;;8.30;99.90;;;8.92;100.00;97957.63;4974119;28;20492;-78
2021/10/29 02:11:35;;;;;;;21.27;10.10;;;8.30;99.90;;;8.91;100.00;97952.59;4985114;28;20960;-78
2021/10/29 02:14:06;;;;;;;46.47;10.77;;;8.40;99.90;;;8.90;100.00;97950.97;4985850;28;20503;-78
2021/10/29 02:16:35;;;;;;;30.30;9.90;;;8.30;99.90;;;8.83;100.00;97950.88;4981150;28;20474;-78
2021/10/29 02:19:04;;;;;;;41.77;10.63;;;8.30;99.90;;;8.83;100.00;97956.09;4970039;28;20449;-78
2021/10/29 02:21:34;;;;;;;32.63;9.87;;;8.20;99.90;;;8.80;100.00;97955.63;4982791;28;20963;-78
2021/10/29 02:24:03;;;;;;;32.47;11.80;;;8.10;99.90;;;8.77;100.00;97946.38;4975028;28;20511;-77
2021/10/29 02:26:34;;;;;;;33.87;10.27;;;8.10;99.90;;;8.77;100.00;97950.78;4989104;28;20452;-77
2021/10/29 02:29:06;;;;;;;25.43;9.90;;;8.10;99.90;;;8.75;100.00;97947.53;4992213;28;20507;-77
2021/10/29 02:31:34;;;;;;;14.70;9.00;;;8.10;99.90;;;8.71;100.00;97947.06;4991560;28;20991;-78
2021/10/29 02:34:03;;;;;;;32.27;9.80;;;7.90;99.90;;;8.66;100.00;97932.97;4988347;28;20518;-77
2021/10/29 02:36:31;;;;;;;30.00;9.53;;;7.90;99.90;;;8.64;100.00;97937.56;4985091;28;20491;-80
2021/10/29 02:39:00;;;;;;;20.73;10.80;;;7.80;99.90;;;8.65;100.00;97931.34;4977586;28;20837;-80
2021/10/29 02:41:29;;;;;;;30.63;12.40;;;7.80;99.90;;;8.65;100.00;97931.34;4987853;28;20522;-80
2021/10/29 02:43:57;;;;;;;42.17;10.43;;;7.90;99.90;;;8.65;100.00;97931.34;4979198;28;20464;-80
2021/10/29 02:46:27;;;;;;;27.30;10.60;;;8.00;99.90;;;8.68;100.00;97931.00;4983353;28;20516;-80
2021/10/29 02:48:56;;;;;;;24.73;10.40;;;8.00;99.90;;;8.69;100.00;97932.59;4979345;28;20527;-80
2021/10/29 02:51:25;;;;;;;23.50;8.70;;;8.00;99.90;;;8.60;100.00;97931.88;4978919;28;20491;-80
2021/10/29 02:53:53;;;;;;;20.87;6.43;;;7.90;99.90;;;8.53;100.00;97929.19;4982815;28;20460;-80
2021/10/29 02:56:22;;;;;;;31.43;8.37;;;7.70;99.90;;;8.48;100.00;97935.88;4985368;28;20508;-80
2021/10/29 02:58:50;;;;;;;19.47;7.40;;;7.60;99.90;;;8.45;100.00;97936.25;4987191;28;20476;-81
2021/10/29 03:01:19;;;;;;;30.43;8.87;;;7.70;99.90;;;8.40;100.00;97938.59;4979216;28;20464;-80
2021/10/29 03:03:49;;;;;;;22.20;9.00;;;7.50;99.90;;;8.34;100.00;97937.47;4980476;28;20471;-80
2021/10/29 03:06:17;;;;;;;21.00;7.67;;;7.60;99.90;;;8.34;100.00;97941.88;4975972;28;20500;-80
2021/10/29 03:08:46;;;;;;;19.83;8.13;;;7.50;99.90;;;8.33;100.00;97933.25;4986390;28;20865;-80
2021/10/29 03:11:14;;;;;;;38.13;7.50;;;7.50;99.90;;;8.31;100.00;97937.00;4976475;28;20464;-80
2021/10/29 03:13:43;;;;;;;50.50;8.07;;;7.50;99.90;;;8.27;100.00;97938.31;4978181;28;20518;-80
2021/10/29 03:16:11;;;;;;;21.40;8.53;;;7.50;99.90;;;8.19;100.00;97930.59;4975975;28;20473;-81
2021/10/29 03:18:40;;;;;;;24.83;7.70;;;7.40;99.90;;;8.21;100.00;97923.38;4982038;28;20824;-80
2021/10/29 03:21:10;;;;;;;18.57;7.83;;;7.50;99.90;;;8.19;100.00;97935.78;4981606;28;20492;-80
2021/10/29 03:23:39;;;;;;;15.20;8.23;;;7.50;99.90;;;8.16;100.00;97931.72;4979987;28;20951;-80
2021/10/29 03:26:07;;;;;;;14.47;8.67;;;7.50;99.90;;;8.16;100.00;97931.72;4977005;28;20578;-80
2021/10/29 03:28:36;;;;;;;20.70;9.53;;;7.40;99.90;;;8.18;100.00;97940.19;4980460;28;20460;-80
2021/10/29 03:31:04;;;;;;;14.27;7.70;;;7.60;99.90;;;8.17;100.00;97927.31;4981011;28;20522;-80
2021/10/29 03:33:38;;;;;;;16.67;8.20;;;7.60;99.90;;;8.13;100.00;97921.66;4976420;28;20704;-80
2021/10/29 03:36:07;;;;;;;23.37;6.97;;;7.40;99.90;;;8.13;100.00;97926.84;4975052;28;20589;-80
2021/10/29 03:38:55;;;;;;;16.07;6.47;;;7.40;99.90;;;8.10;100.00;97919.41;4973828;28;20452;-80
2021/10/29 03:41:26;;;;;;;13.60;6.17;;;7.30;99.90;;;8.07;100.00;97920.56;4986311;28;21059;-91
2021/10/29 03:43:57;;;;;;;20.80;8.00;;;7.30;99.90;;;8.05;100.00;97909.50;4977862;28;20473;-83
2021/10/29 03:46:27;;;;;;;17.40;7.10;;;7.30;99.90;;;8.04;100.00;97912.28;4977523;28;20504;-83
2021/10/29 03:49:05;;;;;;;17.23;7.93;;;7.30;99.90;;;7.97;100.00;97906.97;4980727;28;20452;-81
2021/10/29 03:51:36;;;;;;;26.10;8.27;;;7.20;99.90;;;7.99;100.00;97909.38;4976506;28;20452;-81
2021/10/29 03:54:09;;;;;;;35.93;7.50;;;7.30;99.90;;;8.04;100.00;97896.66;4976448;28;20507;-81
2021/10/29 03:56:56;;;;;;;35.37;7.80;;;7.40;99.90;;;8.05;100.00;97893.09;4979000;28;20460;-85
2021/10/29 03:59:24;;;;;;;43.83;8.00;;;7.40;99.90;;;8.04;100.00;97902.69;4974479;28;20561;-82
2021/10/29 04:01:53;;;;;;;28.03;8.23;;;7.30;99.90;;;8.05;100.00;97904.28;4981643;28;20507;-82
2021/10/29 04:04:22;;;;;;;16.57;7.83;;;7.30;99.90;;;7.99;100.00;97893.75;4988906;28;20463;-83
2021/10/29 04:06:50;;;;;;;27.33;8.47;;;7.20;99.90;;;7.98;100.00;97898.16;4987881;28;20503;-82
2021/10/29 04:09:20;;;;;;;42.20;7.50;;;7.20;99.90;;;7.96;100.00;97899.31;4978974;28;20452;-82
2021/10/29 04:11:48;;;;;;;23.03;8.47;;;7.20;99.90;;;8.01;100.00;97910.84;4982946;28;20486;-81
2021/10/29 04:14:21;;;;;;;45.93;8.83;;;7.20;99.90;;;7.92;100.00;97904.06;4986801;28;20461;-88
2021/10/29 04:16:50;;;;;;;27.53;7.77;;;7.20;99.90;;;7.95;100.00;97902.91;4984187;28;21042;-80
2021/10/29 04:19:19;;;;;;;27.60;7.53;;;7.20;99.90;;;7.90;100.00;97902.63;4978653;28;20960;-81
2021/10/29 04:21:48;;;;;;;19.37;8.30;;;7.20;99.90;;;7.87;100.00;97895.16;4982709;28;20454;-81
2021/10/29 04:24:17;;;;;;;16.77;8.33;;;7.10;99.90;;;7.86;100.00;97896.16;4972044;28;20499;-81
2021/10/29 04:26:48;;;;;;;15.87;7.20;;;7.10;99.90;;;7.81;100.00;97893.28;4979148;28;20526;-90
2021/10/29 04:29:17;;;;;;;25.20;8.27;;;7.10;99.90;;;7.81;100.00;97893.28;4977961;28;20456;-81
2021/10/29 04:31:49;;;;;;;13.07;8.10;;;7.10;99.90;;;7.78;100.00;97894.41;4982016;28;20447;-79
2021/10/29 04:34:20;;;;;;;19.00;8.43;;;7.00;99.90;;;7.83;100.00;97893.91;4978065;28;20464;-79
2021/10/29 04:36:51;;;;;;;16.60;8.97;;;7.10;99.90;;;7.85;100.00;97891.91;4982927;28;20937;-79
2021/10/29 04:39:21;;;;;;;17.70;8.97;;;7.10;99.90;;;7.84;100.00;97895.53;4976000;28;20447;-79
2021/10/29 04:41:52;;;;;;;32.37;9.07;;;7.00;99.90;;;7.87;100.00;97890.78;4979816;28;20487;-79
2021/10/29 04:44:22;;;;;;;15.90;7.90;;;7.10;99.90;;;7.90;100.00;97893.03;4980839;28;20510;-79
2021/10/29 04:46:52;;;;;;;29.17;7.40;;;7.10;99.90;;;7.92;100.00;97887.63;4975711;28;21015;-79
2021/10/29 04:49:21;;;;;;;15.07;8.43;;;7.20;99.90;;;7.95;100.00;97890.69;4981182;28;20456;-79
2021/10/29 04:51:50;;;;;;;20.27;8.53;;;7.30;99.90;;;7.93;100.00;97886.66;4983125;28;20511;-80
2021/10/29 04:54:19;;;;;;;18.30;7.60;;;7.20;99.90;;;7.95;100.00;97893.31;4981321;28;20455;-79
2021/10/29 04:56:49;;;;;;;25.13;9.00;;;7.20;99.90;;;7.96;100.00;97878.50;4986602;28;20455;-79
2021/10/29 04:59:19;;;;;;;33.20;9.13;;;7.10;99.90;;;7.91;100.00;97873.03;4984194;28;20447;-79
2021/10/29 05:01:48;;;;;;;17.00;9.50;;;7.10;99.90;;;7.92;100.00;97861.59;4987073;28;20506;-79
2021/10/29 05:04:19;;;;;;;20.77;7.77;;;7.10;99.90;;;7.94;100.00;97862.25;4977276;28;20788;-79
2021/10/29 05:06:50;;;;;;;26.40;8.87;;;7.10;99.90;;;7.91;100.00;97868.59;4978576;28;20558;-79
2021/10/29 05:09:18;;;;;;;19.50;9.43;;;7.10;99.90;;;7.86;100.00;97857.09;4978100;28;20507;-79
2021/10/29 05:11:48;;;;;;;19.70;7.97;;;6.90;99.90;;;7.83;100.00;97858.25;4977424;28;20507;-78
2021/10/29 05:14:16;;;;;;;33.63;8.43;;;6.80;99.90;;;7.86;100.00;97857.09;4974343;28;20511;-79
2021/10/29 05:16:46;;;;;;;15.33;8.63;;;6.90;99.90;;;7.85;100.00;97850.28;4985553;28;20463;-79
2021/10/29 05:19:15;;;;;;;14.67;8.87;;;7.00;99.90;;;7.90;100.00;97855.78;4982719;28;20456;-79
2021/10/29 05:21:44;;;;;;;21.00;8.30;;;7.10;99.90;;;7.93;100.00;97865.84;4990145;28;20456;-79
2021/10/29 05:24:12;;;;;;;17.67;8.87;;;7.10;99.90;;;7.93;100.00;97868.44;4980705;28;20524;-80
2021/10/29 05:26:41;;;;;;;10.47;7.00;;;7.10;99.90;;;7.95;100.00;97866.47;4989523;28;20503;-80
2021/10/29 05:29:12;;;;;;;26.53;8.97;;;7.10;99.90;;;7.97;100.00;97864.50;4987865;28;20455;-80
2021/10/29 05:31:40;;;;;;;17.07;8.43;;;7.10;99.90;;;7.96;100.00;97858.47;4989916;28;20471;-80
2021/10/29 05:34:10;;;;;;;15.70;8.27;;;7.20;99.90;;;7.90;100.00;97858.38;4977860;28;20504;-79
2021/10/29 05:36:39;;;;;;;12.77;7.83;;;7.10;99.90;;;7.93;100.00;97850.22;4985590;28;20483;-80
2021/10/29 05:39:09;;;;;;;18.30;8.07;;;7.10;99.90;;;7.86;100.00;97851.91;4989186;28;20828;-79
2021/10/29 05:41:38;;;;;;;24.37;8.97;;;7.10;99.90;;;7.89;100.00;97854.16;4989637;28;20530;-80
2021/10/29 05:44:07;;;;;;;11.90;6.53;;;7.10;99.90;;;7.89;100.00;97841.13;4988892;28;20451;-79
2021/10/29 05:46:39;;;;;;;19.40;9.13;;;7.10;99.90;;;7.78;100.00;97844.13;4988468;28;20527;-79
2021/10/29 05:49:12;;;;;;;14.97;8.47;;;6.90;99.90;;;7.78;100.00;97851.94;4980432;28;20444;-79
2021/10/29 05:51:44;;;;;;;14.77;7.50;;;7.00;99.90;;;7.80;100.00;97853.41;4977932;28;20452;-80
2021/10/29 05:54:34;;;;;;;14.77;8.80;;;7.10;99.90;;;7.81;100.00;97854.22;4989060;28;21163;-80
2021/10/29 05:57:06;;;;;;;20.23;8.60;;;7.00;99.90;;;7.77;100.00;97852.94;4986938;28;20510;-79
2021/10/29 05:59:35;;;;;;;15.03;7.93;;;6.90;99.90;;;7.73;100.00;97852.50;4986258;28;20444;-79
2021/10/29 06:02:05;;;;;;;15.07;8.30;;;7.10;99.90;;;7.74;100.00;97848.09;4988015;28;20476;-80
2021/10/29 06:04:35;;;;;;;26.13;9.00;;;7.10;99.90;;;7.74;100.00;97842.91;4989029;28;20455;-79
2021/10/29 06:07:04;;;;;;;22.63;9.40;;;7.00;99.90;;;7.77;100.00;97837.34;4991923;28;20527;-79
2021/10/29 06:09:33;;;;;;;35.53;7.70;;;7.00;99.90;;;7.76;100.00;97846.13;4989310;28;20448;-79
2021/10/29 06:12:01;;;;;;;16.57;9.27;;;7.00;99.90;;;7.77;100.00;97832.13;4993732;28;20447;-79
2021/10/29 06:14:30;;;;;;;15.60;8.80;;;7.00;99.90;;;7.80;100.00;97834.38;4989431;28;20464;-79
2021/10/29 06:17:00;;;;;;;20.03;8.40;;;7.00;99.90;;;7.81;100.00;97843.81;4986071;28;20463;-79
2021/10/29 06:19:28;;;;;;;14.77;8.80;;;7.10;99.90;;;7.85;100.00;97837.25;4991305;28;20510;-79
2021/10/29 06:22:02;;;;;;;15.10;9.27;;;7.20;99.90;;;7.87;100.00;97837.91;4990498;28;20448;-79
2021/10/29 06:24:31;;;;;;;17.30;8.77;;;7.30;99.90;;;7.88;100.00;97840.31;4986986;28;20479;-80
2021/10/29 06:27:02;;;;;;;12.63;7.93;;;7.20;99.90;;;7.87;100.00;97835.31;4992719;28;20499;-80
2021/10/29 06:29:32;;;;;;;15.60;8.03;;;7.10;99.90;;;7.86;100.00;97837.09;4991563;28;21010;-80
2021/10/29 06:32:00;;;;;;;12.83;7.43;;;7.20;99.90;;;7.87;100.00;97843.94;4981882;28;20457;-80
2021/10/29 06:34:29;;;;;;;13.37;7.80;;;7.20;99.90;;;7.88;100.00;97844.75;4987830;28;20459;-79
2021/10/29 06:36:58;;;;;;;13.20;7.77;;;7.30;99.90;;;7.88;100.00;97834.31;4992189;28;20510;-79
2021/10/29 06:39:27;;;;;;;14.77;7.87;;;7.20;99.90;;;7.88;100.00;97840.31;4985308;28;20448;-79
2021/10/29 06:41:56;;;;;;;16.60;8.30;;;7.20;99.90;;;7.88;100.00;97839.53;4987285;28;20541;-79
2021/10/29 06:44:32;;;;;;;11.80;7.67;;;7.10;99.90;;;7.88;100.00;97842.13;4983339;28;20452;-80
2021/10/29 06:47:32;;;;;;;14.03;7.63;;;7.10;99.90;;;7.89;100.00;97851.53;4989740;28;20535;-79
2021/10/29 07:01:10;;;;;;;11.83;7.00;;;7.20;99.90;;;7.99;100.00;97849.50;4984403;28;20449;-80
2021/10/29 07:40:03;;;;;;;14.33;7.53;;;7.40;99.90;;;8.08;100.00;97854.50;4919394;29;20491;-79
2021/10/29 07:42:40;;;;;;;19.87;7.60;;;7.40;99.90;;;8.05;100.00;97857.41;4924512;29;21075;-79
2021/10/29 07:45:11;;;;;;;13.30;8.53;;;7.30;99.90;;;8.04;100.00;97853.22;4961940;28;20448;-79
2021/10/29 07:47:41;;;;;;;11.93;7.23;;;7.30;99.90;;;8.06;100.00;97856.44;4991351;28;20496;-79
2021/10/29 07:50:13;;;;;;;16.00;8.10;;;7.30;99.90;;;8.07;100.00;97858.06;4984321;28;20451;-79
2021/10/29 07:52:44;;;;;;;11.37;7.40;;;7.30;99.90;;;8.08;100.00;97857.09;4986617;28;20984;-79
2021/10/29 07:55:16;;;;;;;12.33;7.50;;;7.30;99.90;;;8.12;100.00;97852.34;4990461;28;20448;-79
2021/10/29 07:57:46;;;;;;;13.10;7.40;;;7.30;99.90;;;8.15;100.00;97852.00;4983357;28;20779;-79
2021/10/29 08:00:18;;;;;;;15.20;8.30;;;7.30;99.90;;;8.15;100.00;97857.19;4989221;28;20521;-80
2021/10/29 08:02:51;;;;;;;17.87;8.43;;;7.30;99.90;;;8.15;100.00;97856.38;4988213;28;20894;-79
2021/10/29 08:05:20;;;;;;;17.13;9.00;;;7.40;99.90;;;8.17;100.00;97851.78;4986852;28;20979;-79
2021/10/29 08:07:49;;;;;;;13.90;8.87;;;7.50;99.90;;;8.17;100.00;97859.59;4984748;28;20558;-80
2021/10/29 08:10:18;;;;;;;19.10;7.73;;;7.40;99.90;;;8.18;100.00;97854.25;4988819;28;20467;-80
2021/10/29 08:12:48;;;;;;;15.33;8.97;;;7.50;99.90;;;8.18;100.00;97862.06;4993943;28;21748;-79
2021/10/29 08:15:17;;;;;;;16.83;8.27;;;7.50;99.90;;;8.18;100.00;97854.25;4985257;28;20447;-79
2021/10/29 08:17:46;;;;;;;13.43;8.27;;;7.40;99.90;;;8.21;100.00;97853.06;4978810;28;21040;-80
2021/10/29 08:20:17;;;;;;;16.13;8.60;;;7.50;99.90;;;8.20;100.00;97854.84;4991531;28;20506;-80
2021/10/29 08:22:46;;;;;;;20.00;9.10;;;7.50;99.90;;;8.21;100.00;97861.69;4983298;28;20444;-80
2021/10/29 08:25:15;;;;;;;15.97;10.07;;;7.40;99.90;;;8.25;100.00;97862.16;4983915;28;20998;-80
2021/10/29 08:27:44;;;;;;;18.53;9.80;;;7.40;99.90;;;8.29;100.00;97856.44;4989507;28;20899;-79
2021/10/29 08:30:22;;;;;;;17.87;8.90;;;7.50;99.90;;;8.28;100.00;97856.59;4984468;28;20464;-79
2021/10/29 08:32:52;;;;;;;16.17;8.33;;;7.60;99.90;;;8.29;100.00;97858.25;4984943;28;20503;-79
2021/10/29 08:35:21;;;;;;;16.47;9.90;;;7.80;99.90;;;8.28;100.00;97857.44;4982868;28;20445;-79
2021/10/29 08:37:51;;;;;;;19.03;8.97;;;7.70;99.90;;;8.31;100.00;97846.66;4977395;28;20492;-80
2021/10/29 08:40:21;;;;;;;13.67;7.73;;;7.70;99.90;;;8.36;100.00;97853.94;4987098;28;20456;-79
2021/10/29 08:42:51;;;;;;;13.73;7.97;;;7.80;99.90;;;8.35;100.00;97845.31;4981237;28;20556;-79
2021/10/29 08:45:21;;;;;;;12.83;7.77;;;7.70;99.90;;;8.41;100.00;97852.41;4988067;28;20451;-80
2021/10/29 08:47:50;;;;;;;12.60;7.70;;;7.70;99.90;;;8.38;100.00;97850.16;4990721;28;20546;-80
2021/10/29 08:50:20;;;;;;;19.20;9.20;;;7.60;99.90;;;8.39;100.00;97849.19;4986318;28;20506;-80
2021/10/29 08:52:50;;;;;;;22.03;8.80;;;7.60;99.90;;;8.34;100.00;97846.28;4979633;28;20433;-77
2021/10/29 08:55:25;;;;;;;14.93;8.10;;;7.50;99.90;;;8.35;100.00;97847.09;4980405;28;20509;-79
2021/10/29 08:57:54;;;;;;;14.00;8.70;;;7.40;99.90;;;8.42;100.00;97846.22;4984577;28;20502;-79
2021/10/29 09:00:29;;;;;;;12.37;8.40;;;7.60;99.90;;;8.49;100.00;97844.53;4990652;28;21008;-80
2021/10/29 09:03:04;;;;;;;14.77;8.47;;;7.80;99.90;;;8.53;100.00;97843.19;4987499;28;20458;-79
2021/10/29 09:05:39;;;;;;;13.13;9.23;;;7.80;99.90;;;8.54;100.00;97846.56;4982963;28;20479;-80
2021/10/29 09:08:15;;;;;;;15.50;8.97;;;7.80;99.90;;;8.53;100.00;97840.59;4988662;28;20507;-79
2021/10/29 09:11:20;;;;;;;14.57;9.77;;;7.70;99.90;;;8.54;100.00;97833.53;4981841;28;20463;-79
2021/10/29 09:31:29;;;;;;;12.07;7.50;;;7.80;99.90;;;8.75;100.00;97804.16;4978317;28;20458;-80
2021/10/29 09:34:06;;;;;;;13.47;8.57;;;7.90;99.90;;;8.77;100.00;97804.78;4988447;28;20955;-77
2021/10/29 09:36:38;;;;;;;13.80;9.00;;;7.90;99.90;;;8.81;100.00;97808.66;4992829;28;20579;-77
2021/10/29 09:39:10;;;;;;;15.07;9.07;;;8.00;99.90;;;8.86;100.00;97809.72;4983045;28;21037;-77
2021/10/29 09:41:40;;;;;;;14.13;8.90;;;8.00;99.90;;;8.94;100.00;97811.41;4990427;28;20518;-77
2021/10/29 09:44:14;;;;;;;16.20;9.60;;;8.20;99.90;;;8.97;100.00;97804.03;4987608;28;20535;-78
2021/10/29 09:46:53;;;;;;;14.43;10.10;;;8.20;99.90;;;9.02;100.00;97788.63;4993897;28;20517;-77
2021/10/29 09:49:30;;;;;;;14.70;9.33;;;8.30;99.90;;;9.06;100.00;97799.50;4994009;28;20490;-77
2021/10/29 09:52:30;;;;;;;14.90;9.20;;;8.30;99.90;;;9.14;100.00;97796.00;4993662;28;20479;-77
2021/10/29 09:55:13;;;;;;;15.30;8.80;;;8.50;99.90;;;9.19;100.00;97794.47;4990689;28;20503;-77
2021/10/29 09:57:49;;;;;;;10.93;7.83;;;8.50;99.90;;;9.19;100.00;97791.88;4984966;28;20472;-77
2021/10/29 10:00:18;;;;;;;9.33;7.10;;;8.60;99.90;;;9.23;100.00;97793.13;4990547;28;20490;-77
2021/10/29 10:02:47;;;;;;;13.00;8.93;;;8.60;99.90;;;9.30;100.00;97796.56;4993706;28;20711;-77
2021/10/29 10:05:18;;;;;;;14.07;8.40;;;8.60;99.90;;;9.38;100.00;97799.06;4993320;28;20455;-77
2021/10/29 10:07:47;;;;;;;15.23;10.07;;;8.90;99.90;;;9.45;100.00;97799.13;4986563;28;20861;-77
2021/10/29 10:10:16;;;;;;;12.97;8.87;;;9.00;99.90;;;9.48;100.00;97789.13;4992161;28;20527;-77
2021/10/29 10:12:47;;;;;;;14.93;9.77;;;9.00;99.90;;;9.50;100.00;97787.16;4993712;28;20498;-77
2021/10/29 10:15:16;;;;;;;17.00;9.50;;;8.90;99.90;;;9.56;100.00;97785.59;4986262;28;20439;-77
2021/10/29 10:17:45;;;;;;;12.83;8.60;;;8.90;99.90;;;9.61;100.00;97791.09;4985853;28;20452;-77
2021/10/29 10:20:13;;;;;;;12.50;9.33;;;9.00;99.90;;;9.65;100.00;97796.75;4993430;28;21034;-77
2021/10/29 10:22:49;;;;;;;12.23;7.90;;;9.10;99.90;;;9.65;100.00;97781.06;4988383;28;20527;-77
2021/10/29 10:25:35;;;;;;;12.80;8.43;;;9.00;99.90;;;9.72;100.00;97776.72;4982492;28;20454;-77
2021/10/29 10:42:45;;;;;;;14.87;9.40;;;9.40;99.90;;;10.00;100.00;97760.03;4984661;28;20526;-77
2021/10/29 10:45:17;;;;;;;15.63;10.47;;;9.50;99.90;;;10.02;100.00;97754.66;4984785;28;20967;-77
2021/10/29 10:47:52;;;;;;;14.10;9.30;;;9.60;99.90;;;10.04;100.00;97755.25;4992431;28;20571;-77
2021/10/29 10:50:30;;;;;;;12.37;9.60;;;9.60;99.90;;;10.09;100.00;97745.06;4992481;28;20498;-77
2021/10/29 10:53:23;;;;;;;10.83;7.73;;;9.60;99.90;;;10.12;100.00;97739.44;4982592;28;20929;-78
2021/10/29 10:59:07;;;;;;;14.17;8.87;;;9.50;99.90;;;10.17;100.00;97741.50;4975268;28;20530;-77
2021/10/29 11:04:55;;;;;;;9.37;7.23;;;9.50;99.90;;;10.21;100.00;97721.81;4975769;28;20498;-77
2021/10/29 11:10:34;;;;;;;13.07;9.27;;;9.50;99.90;;;10.28;100.00;97706.97;4926955;29;20494;-77
2021/10/29 11:13:13;;;;;;;14.60;9.13;;;9.60;99.90;;;10.30;100.00;97697.97;4974142;28;20487;-77
2021/10/29 11:15:41;;;;;;;14.87;9.17;;;9.60;99.90;;;10.33;100.00;97700.19;4982210;28;20507;-77
2021/10/29 11:18:33;;;;;;;11.90;9.27;;;9.60;99.90;;;10.36;100.00;97688.53;4990359;28;20471;-77
2021/10/29 11:21:22;;;;;;;14.77;9.67;;;9.70;99.90;;;10.38;100.00;97687.34;4990936;28;20463;-77
2021/10/29 11:23:55;;;;;;;12.13;9.07;;;9.70;99.90;;;10.42;100.00;97685.94;4977868;28;21001;-77
2021/10/29 11:26:30;;;;;;;17.40;10.40;;;9.80;99.90;;;10.48;100.00;97684.38;4987757;28;20448;-77
2021/10/29 11:29:03;;;;;;;14.93;9.00;;;9.80;99.90;;;10.48;100.00;97682.56;4986784;28;21398;-77
2021/10/29 11:31:39;;;;;;;16.50;9.30;;;9.80;99.90;;;10.49;100.00;97676.31;4991957;28;20479;-77
2021/10/29 11:34:21;;;;;;;13.50;9.10;;;9.80;99.90;;;10.51;100.00;97666.50;4983419;28;20451;-77
2021/10/29 11:36:54;;;;;;;13.63;9.37;;;9.80;99.90;;;10.53;100.00;97667.09;4989497;28;20975;-77
2021/10/29 11:39:25;;;;;;;15.90;10.30;;;9.80;99.90;;;10.54;100.00;97655.66;4987261;28;20451;-77
2021/10/29 11:41:54;;;;;;;15.10;9.60;;;9.80;99.90;;;10.58;100.00;97656.88;4987940;28;20546;-77
2021/10/29 11:44:26;;;;;;;14.30;10.33;;;9.90;99.90;;;10.62;100.00;97640.78;4991224;28;20526;-77
2021/10/29 11:46:57;;;;;;;14.20;10.00;;;9.90;99.90;;;10.65;100.00;97643.00;4991487;28;20951;-77
2021/10/29 11:49:29;;;;;;;15.97;10.17;;;10.00;99.90;;;10.68;100.00;97638.19;4990160;28;21062;-77
2021/10/29 11:52:01;;;;;;;11.77;9.10;;;10.00;99.90;;;10.71;100.00;97636.97;4987915;28;20843;-77
2021/10/29 11:54:33;;;;;;;12.43;8.83;;;10.10;99.90;;;10.73;100.00;97637.56;4979167;28;20872;-77
2021/10/29 11:57:26;;;;;;;13.40;8.47;;;10.10;99.90;;;10.77;100.00;97633.56;4986727;28;20476;-77
2021/10/29 12:00:14;;;;;;;13.40;8.70;;;10.10;99.90;;;10.77;100.00;97633.56;4987124;28;20526;-77
2021/10/29 12:05:53;;;;;;;16.10;9.67;;;10.10;99.90;;;10.85;100.00;97620.31;4944776;29;20450;-77
2021/10/29 12:08:23;;;;;;;11.10;8.30;;;10.20;99.90;;;10.84;100.00;97616.06;4978539;28;20498;-77